Grizzly Air Cargo 5354


PANC
Ted Stevens Anchorage International Airport
Anchorage, Alaska, US
PAVD
Valdez Pioneer Field Airport
Valdez, Alaska, US

Activity Log

Date Flight Route Aircraft Duration
08/27/2020 GRZ5354 PEPPI OLLEO SF34 0h 57m
04/06/2020 GRZ5354 NOEND4 NOEND OLLEO SF34 0h 46m
09/26/2019 GRZ554 YESKA BIGH MNL SF34 0h 35m

Route Details

Aircraft Information
Primary: Saab 340AF
Backup: Not Available
Route Data
Distance: 129nm
Sched. Duration: 0h 60m
Avg. Duration: 0h 46m (-14m)
Times Flown: 3
Recm'd Route: YESKA BIGH MNL
Planned Altitude: 17,000ft
Origin Wx: PANC 312053Z 35007KT 10SM CLR M07/M16 A2985 RMK AO2 SLP112 T10671161 53013
Dest. Wx: PAVD 312056Z 03016G25KT 350V070 10SM FEW120 M01/M16 RMK AO2 PK WND 01027/2040 SLPNO A2970 T10111156 $
Notes:

Financial History
Total Freight: 18,445lbs
Average Load: 6,148lbs/flt
Fuel Used: 2,097lbs
Avg. Fuel Used: 699lbs/flt
Fuel Expense: $2,696
Avg. Fuel Expense: $899
Avg. Fuel Cost: $1.28/lbs
Total Gross Income: $37,025
Pilot Pay: $367
Total Expenses: $4,155
Total Revenue: $29,964
Average Revenue: $12,341.72